createdAt,value
2019-05-28T00:00:27.169Z,28.27
2019-05-28T00:02:56.472Z,27.93
2019-05-28T00:05:26.047Z,30.32
2019-05-28T00:07:57.821Z,29.37
2019-05-28T00:10:27.142Z,30.75
2019-05-28T00:12:56.971Z,28.10
2019-05-28T00:15:26.281Z,27.00
2019-05-28T00:17:56.364Z,29.47
2019-05-28T00:20:25.873Z,27.40
2019-05-28T00:22:55.158Z,28.60
2019-05-28T00:25:28.456Z,26.60
2019-05-28T00:27:55.294Z,26.80
2019-05-28T00:30:24.524Z,23.83
2019-05-28T00:32:53.753Z,28.87
2019-05-28T00:35:23.028Z,30.47
2019-05-28T00:37:52.299Z,31.87
2019-05-28T00:40:21.674Z,30.67
2019-05-28T00:42:50.956Z,29.97
2019-05-28T00:45:20.593Z,32.03
2019-05-28T00:47:49.836Z,30.83
2019-05-28T00:50:19.865Z,28.37
2019-05-28T00:52:49.238Z,31.67
2019-05-28T00:55:18.391Z,39.70
2019-05-28T00:57:49.407Z,33.83
2019-05-28T01:00:36.581Z,29.33
2019-05-28T01:02:53.670Z,28.53
2019-05-28T01:05:22.808Z,34.87
2019-05-28T01:07:52.030Z,30.63
2019-05-28T01:10:21.279Z,31.40
2019-05-28T01:12:50.804Z,36.00
2019-05-28T01:15:20.028Z,38.67
2019-05-28T01:17:49.291Z,34.03
2019-05-28T01:20:20.038Z,43.13
2019-05-28T01:22:49.295Z,37.87
2019-05-28T01:25:18.481Z,36.30
2019-05-28T01:27:47.667Z,40.33
2019-05-28T01:30:16.975Z,36.80
2019-05-28T01:32:46.251Z,36.47
2019-05-28T01:35:15.590Z,36.13
2019-05-28T01:37:44.892Z,34.17
2019-05-28T01:40:15.392Z,34.43
2019-05-28T01:42:44.984Z,36.70
2019-05-28T01:45:14.869Z,34.50
2019-05-28T01:47:44.401Z,38.43
2019-05-28T01:50:14.029Z,33.77
2019-05-28T01:52:43.188Z,34.27
2019-05-28T01:55:12.467Z,34.03
2019-05-28T01:57:41.978Z,33.23
